sensor_id;sensor_type;location;lat;lon;timestamp;temperature;humidity
20091;DHT22;10205;49.678;6.560;2023-02-15T00:01:51;5.90;69.50
20091;DHT22;10205;49.678;6.560;2023-02-15T00:04:21;5.80;69.50
20091;DHT22;10205;49.678;6.560;2023-02-15T00:06:50;5.80;69.40
20091;DHT22;10205;49.678;6.560;2023-02-15T00:09:17;5.80;69.40
20091;DHT22;10205;49.678;6.560;2023-02-15T00:11:44;5.80;69.60
20091;DHT22;10205;49.678;6.560;2023-02-15T00:14:18;5.80;69.50
20091;DHT22;10205;49.678;6.560;2023-02-15T00:16:47;5.70;69.40
20091;DHT22;10205;49.678;6.560;2023-02-15T00:19:16;5.70;69.40
20091;DHT22;10205;49.678;6.560;2023-02-15T00:21:48;5.70;69.60
20091;DHT22;10205;49.678;6.560;2023-02-15T00:24:18;5.70;69.60
20091;DHT22;10205;49.678;6.560;2023-02-15T00:26:46;5.70;69.70
20091;DHT22;10205;49.678;6.560;2023-02-15T00:29:17;5.70;69.70
20091;DHT22;10205;49.678;6.560;2023-02-15T00:31:46;5.60;69.70
20091;DHT22;10205;49.678;6.560;2023-02-15T00:34:28;5.60;69.80
20091;DHT22;10205;49.678;6.560;2023-02-15T00:36:55;5.60;69.80
20091;DHT22;10205;49.678;6.560;2023-02-15T00:39:23;5.60;69.80
20091;DHT22;10205;49.678;6.560;2023-02-15T00:41:51;5.60;69.70
20091;DHT22;10205;49.678;6.560;2023-02-15T00:44:19;5.50;69.70
20091;DHT22;10205;49.678;6.560;2023-02-15T00:46:46;5.50;69.70
20091;DHT22;10205;49.678;6.560;2023-02-15T00:49:13;5.50;70.40
20091;DHT22;10205;49.678;6.560;2023-02-15T00:51:40;5.50;69.60
20091;DHT22;10205;49.678;6.560;2023-02-15T00:54:07;5.50;69.60
20091;DHT22;10205;49.678;6.560;2023-02-15T00:56:34;5.40;69.60
20091;DHT22;10205;49.678;6.560;2023-02-15T00:59:06;5.40;69.70
20091;DHT22;10205;49.678;6.560;2023-02-15T01:01:36;5.40;69.40
20091;DHT22;10205;49.678;6.560;2023-02-15T01:04:03;5.40;68.80
20091;DHT22;10205;49.678;6.560;2023-02-15T01:06:30;5.40;68.60
20091;DHT22;10205;49.678;6.560;2023-02-15T01:08:57;5.30;68.60
20091;DHT22;10205;49.678;6.560;2023-02-15T01:11:24;5.20;68.80
20091;DHT22;10205;49.678;6.560;2023-02-15T01:13:53;5.20;69.20
20091;DHT22;10205;49.678;6.560;2023-02-15T01:16:26;5.20;69.40
20091;DHT22;10205;49.678;6.560;2023-02-15T01:18:56;5.20;69.40
20091;DHT22;10205;49.678;6.560;2023-02-15T01:21:24;5.10;69.20
20091;DHT22;10205;49.678;6.560;2023-02-15T01:23:53;5.10;69.30
20091;DHT22;10205;49.678;6.560;2023-02-15T01:26:20;5.10;69.40
20091;DHT22;10205;49.678;6.560;2023-02-15T01:28:48;5.10;69.60
20091;DHT22;10205;49.678;6.560;2023-02-15T01:31:16;5.10;69.60
20091;DHT22;10205;49.678;6.560;2023-02-15T01:33:46;5.00;69.50
20091;DHT22;10205;49.678;6.560;2023-02-15T01:36:15;5.00;69.50
20091;DHT22;10205;49.678;6.560;2023-02-15T01:38:43;5.00;69.60
20091;DHT22;10205;49.678;6.560;2023-02-15T01:41:10;5.00;69.80
20091;DHT22;10205;49.678;6.560;2023-02-15T01:43:54;5.00;69.60
20091;DHT22;10205;49.678;6.560;2023-02-15T01:46:27;4.90;69.60
20091;DHT22;10205;49.678;6.560;2023-02-15T01:49:06;4.90;69.60
20091;DHT22;10205;49.678;6.560;2023-02-15T01:51:40;4.90;69.70
20091;DHT22;10205;49.678;6.560;2023-02-15T01:54:15;4.90;69.70
20091;DHT22;10205;49.678;6.560;2023-02-15T01:56:52;4.90;69.70
20091;DHT22;10205;49.678;6.560;2023-02-15T01:59:23;4.90;69.70
20091;DHT22;10205;49.678;6.560;2023-02-15T02:01:55;4.90;69.80
20091;DHT22;10205;49.678;6.560;2023-02-15T02:04:31;4.80;69.90
20091;DHT22;10205;49.678;6.560;2023-02-15T02:07:08;4.80;69.90
20091;DHT22;10205;49.678;6.560;2023-02-15T02:09:38;4.80;69.90
20091;DHT22;10205;49.678;6.560;2023-02-15T02:12:09;4.80;70.00
20091;DHT22;10205;49.678;6.560;2023-02-15T02:14:37;4.80;70.10
20091;DHT22;10205;49.678;6.560;2023-02-15T02:17:10;4.80;70.20
20091;DHT22;10205;49.678;6.560;2023-02-15T02:23:16;4.70;70.30
20091;DHT22;10205;49.678;6.560;2023-02-15T02:29:41;4.70;70.60
20091;DHT22;10205;49.678;6.560;2023-02-15T02:32:57;4.70;70.60
20091;DHT22;10205;49.678;6.560;2023-02-15T02:35:40;4.70;70.50
20091;DHT22;10205;49.678;6.560;2023-02-15T02:38:21;4.70;70.50
20091;DHT22;10205;49.678;6.560;2023-02-15T02:41:00;4.70;70.70
20091;DHT22;10205;49.678;6.560;2023-02-15T02:43:40;4.70;70.70
20091;DHT22;10205;49.678;6.560;2023-02-15T02:46:24;4.60;70.70
20091;DHT22;10205;49.678;6.560;2023-02-15T02:48:57;4.60;70.80
20091;DHT22;10205;49.678;6.560;2023-02-15T02:51:24;4.60;70.70
20091;DHT22;10205;49.678;6.560;2023-02-15T02:53:53;4.70;70.90
20091;DHT22;10205;49.678;6.560;2023-02-15T02:56:26;4.70;70.90
20091;DHT22;10205;49.678;6.560;2023-02-15T02:59:01;4.70;70.90
20091;DHT22;10205;49.678;6.560;2023-02-15T03:01:40;4.70;70.90
20091;DHT22;10205;49.678;6.560;2023-02-15T03:04:15;4.70;71.00
20091;DHT22;10205;49.678;6.560;2023-02-15T03:06:51;4.70;71.00
20091;DHT22;10205;49.678;6.560;2023-02-15T03:09:25;4.70;71.10
20091;DHT22;10205;49.678;6.560;2023-02-15T03:12:00;4.70;71.10
20091;DHT22;10205;49.678;6.560;2023-02-15T03:14:30;4.70;71.10
20091;DHT22;10205;49.678;6.560;2023-02-15T03:16:57;4.70;71.30
20091;DHT22;10205;49.678;6.560;2023-02-15T03:19:29;4.60;71.30
20091;DHT22;10205;49.678;6.560;2023-02-15T03:22:01;4.60;71.30
20091;DHT22;10205;49.678;6.560;2023-02-15T03:24:36;4.60;71.40
20091;DHT22;10205;49.678;6.560;2023-02-15T03:27:11;4.60;71.40
20091;DHT22;10205;49.678;6.560;2023-02-15T03:29:44;4.60;71.50
20091;DHT22;10205;49.678;6.560;2023-02-15T03:32:14;4.60;71.50
20091;DHT22;10205;49.678;6.560;2023-02-15T03:34:43;4.60;71.50
20091;DHT22;10205;49.678;6.560;2023-02-15T03:37:16;4.60;71.50
20091;DHT22;10205;49.678;6.560;2023-02-15T03:39:54;4.60;71.70
20091;DHT22;10205;49.678;6.560;2023-02-15T03:42:50;4.60;71.70
20091;DHT22;10205;49.678;6.560;2023-02-15T03:45:25;4.60;71.70
20091;DHT22;10205;49.678;6.560;2023-02-15T03:47:56;4.60;71.70
20091;DHT22;10205;49.678;6.560;2023-02-15T03:50:30;4.60;71.70
20091;DHT22;10205;49.678;6.560;2023-02-15T03:53:19;4.60;71.60
20091;DHT22;10205;49.678;6.560;2023-02-15T03:55:49;4.60;71.60
20091;DHT22;10205;49.678;6.560;2023-02-15T03:58:20;4.70;71.60
20091;DHT22;10205;49.678;6.560;2023-02-15T04:01:11;4.70;71.70
20091;DHT22;10205;49.678;6.560;2023-02-15T04:04:07;4.70;71.70
20091;DHT22;10205;49.678;6.560;2023-02-15T04:06:38;4.70;72.40
20091;DHT22;10205;49.678;6.560;2023-02-15T04:09:05;4.70;72.30
20091;DHT22;10205;49.678;6.560;2023-02-15T04:11:50;4.70;71.50
20091;DHT22;10205;49.678;6.560;2023-02-15T04:14:20;4.70;71.50
20091;DHT22;10205;49.678;6.560;2023-02-15T04:17:05;4.70;71.50
20091;DHT22;10205;49.678;6.560;2023-02-15T04:19:32;4.70;71.50
20091;DHT22;10205;49.678;6.560;2023-02-15T04:22:18;4.70;71.50
20091;DHT22;10205;49.678;6.560;2023-02-15T04:25:04;4.70;71.50
20091;DHT22;10205;49.678;6.560;2023-02-15T04:27:41;4.70;71.50
20091;DHT22;10205;49.678;6.560;2023-02-15T04:30:11;4.70;71.70
20091;DHT22;10205;49.678;6.560;2023-02-15T04:32:38;4.70;71.60
20091;DHT22;10205;49.678;6.560;2023-02-15T04:35:07;4.70;71.70
20091;DHT22;10205;49.678;6.560;2023-02-15T04:37:36;4.70;71.80
20091;DHT22;10205;49.678;6.560;2023-02-15T04:40:03;4.70;72.00
20091;DHT22;10205;49.678;6.560;2023-02-15T04:42:32;4.70;72.00
20091;DHT22;10205;49.678;6.560;2023-02-15T04:44:59;4.70;71.90
20091;DHT22;10205;49.678;6.560;2023-02-15T04:47:26;4.70;71.90
20091;DHT22;10205;49.678;6.560;2023-02-15T04:49:54;4.70;71.90
20091;DHT22;10205;49.678;6.560;2023-02-15T04:52:21;4.70;71.90
20091;DHT22;10205;49.678;6.560;2023-02-15T04:54:49;4.70;71.90
20091;DHT22;10205;49.678;6.560;2023-02-15T04:57:16;4.70;71.50
20091;DHT22;10205;49.678;6.560;2023-02-15T04:59:43;4.70;72.00
20091;DHT22;10205;49.678;6.560;2023-02-15T05:02:10;4.70;72.10
20091;DHT22;10205;49.678;6.560;2023-02-15T05:04:40;4.70;72.10
20091;DHT22;10205;49.678;6.560;2023-02-15T05:07:07;4.70;72.10
20091;DHT22;10205;49.678;6.560;2023-02-15T05:09:34;4.70;72.10
20091;DHT22;10205;49.678;6.560;2023-02-15T05:12:03;4.70;72.00
20091;DHT22;10205;49.678;6.560;2023-02-15T05:14:30;4.70;72.10
20091;DHT22;10205;49.678;6.560;2023-02-15T05:17:01;4.70;72.00
20091;DHT22;10205;49.678;6.560;2023-02-15T05:19:29;4.70;72.00
20091;DHT22;10205;49.678;6.560;2023-02-15T05:21:56;4.80;72.10
20091;DHT22;10205;49.678;6.560;2023-02-15T05:24:23;4.70;72.10
20091;DHT22;10205;49.678;6.560;2023-02-15T05:27:10;4.70;72.00
20091;DHT22;10205;49.678;6.560;2023-02-15T05:29:55;4.70;72.10
20091;DHT22;10205;49.678;6.560;2023-02-15T05:32:22;4.70;72.00
20091;DHT22;10205;49.678;6.560;2023-02-15T05:34:49;4.70;72.00
20091;DHT22;10205;49.678;6.560;2023-02-15T05:37:19;4.70;72.20
20091;DHT22;10205;49.678;6.560;2023-02-15T05:39:46;4.70;72.20
20091;DHT22;10205;49.678;6.560;2023-02-15T05:42:19;4.70;72.30
20091;DHT22;10205;49.678;6.560;2023-02-15T05:44:46;4.70;72.30
20091;DHT22;10205;49.678;6.560;2023-02-15T05:47:15;4.70;72.30
20091;DHT22;10205;49.678;6.560;2023-02-15T05:49:42;4.70;72.30
20091;DHT22;10205;49.678;6.560;2023-02-15T05:52:09;4.70;72.30
20091;DHT22;10205;49.678;6.560;2023-02-15T05:54:39;4.70;72.40
20091;DHT22;10205;49.678;6.560;2023-02-15T05:57:06;4.70;72.50
20091;DHT22;10205;49.678;6.560;2023-02-15T05:59:35;4.70;72.60
20091;DHT22;10205;49.678;6.560;2023-02-15T06:02:02;4.70;72.60
20091;DHT22;10205;49.678;6.560;2023-02-15T06:04:31;4.70;72.60
20091;DHT22;10205;49.678;6.560;2023-02-15T06:06:58;4.70;72.50
20091;DHT22;10205;49.678;6.560;2023-02-15T06:09:25;4.70;72.50
20091;DHT22;10205;49.678;6.560;2023-02-15T06:11:52;4.60;72.40
20091;DHT22;10205;49.678;6.560;2023-02-15T06:14:20;4.70;72.40
20091;DHT22;10205;49.678;6.560;2023-02-15T06:16:48;4.70;72.50
20091;DHT22;10205;49.678;6.560;2023-02-15T06:19:15;4.70;72.50
20091;DHT22;10205;49.678;6.560;2023-02-15T06:21:43;4.60;72.50
20091;DHT22;10205;49.678;6.560;2023-02-15T06:24:11;4.70;72.50
20091;DHT22;10205;49.678;6.560;2023-02-15T06:26:38;4.70;72.50
20091;DHT22;10205;49.678;6.560;2023-02-15T06:29:06;4.70;72.40
20091;DHT22;10205;49.678;6.560;2023-02-15T06:31:34;4.70;72.50
20091;DHT22;10205;49.678;6.560;2023-02-15T06:34:02;4.70;72.60
20091;DHT22;10205;49.678;6.560;2023-02-15T06:36:30;4.70;72.70
20091;DHT22;10205;49.678;6.560;2023-02-15T06:38:57;4.70;72.70
20091;DHT22;10205;49.678;6.560;2023-02-15T06:41:25;4.70;72.60
20091;DHT22;10205;49.678;6.560;2023-02-15T06:43:52;4.70;72.60
20091;DHT22;10205;49.678;6.560;2023-02-15T06:46:19;4.70;72.50
20091;DHT22;10205;49.678;6.560;2023-02-15T06:48:46;4.70;72.50
20091;DHT22;10205;49.678;6.560;2023-02-15T06:51:14;4.80;72.50
20091;DHT22;10205;49.678;6.560;2023-02-15T06:53:42;4.80;72.30
20091;DHT22;10205;49.678;6.560;2023-02-15T06:56:10;4.80;72.20
20091;DHT22;10205;49.678;6.560;2023-02-15T06:58:39;4.70;72.10
20091;DHT22;10205;49.678;6.560;2023-02-15T07:01:08;4.70;72.20
20091;DHT22;10205;49.678;6.560;2023-02-15T07:03:36;4.80;72.30
20091;DHT22;10205;49.678;6.560;2023-02-15T07:06:04;4.70;72.20
20091;DHT22;10205;49.678;6.560;2023-02-15T07:08:36;4.80;72.20
20091;DHT22;10205;49.678;6.560;2023-02-15T07:11:05;4.80;72.20
20091;DHT22;10205;49.678;6.560;2023-02-15T07:13:50;4.80;72.10
20091;DHT22;10205;49.678;6.560;2023-02-15T07:16:18;4.80;72.20
20091;DHT22;10205;49.678;6.560;2023-02-15T07:18:46;4.80;72.10
20091;DHT22;10205;49.678;6.560;2023-02-15T07:21:13;4.80;72.10
20091;DHT22;10205;49.678;6.560;2023-02-15T07:23:42;4.70;72.00
20091;DHT22;10205;49.678;6.560;2023-02-15T07:26:09;4.80;72.00
20091;DHT22;10205;49.678;6.560;2023-02-15T07:28:36;4.70;71.90
20091;DHT22;10205;49.678;6.560;2023-02-15T07:31:04;4.70;72.00
20091;DHT22;10205;49.678;6.560;2023-02-15T07:33:32;4.70;71.90
20091;DHT22;10205;49.678;6.560;2023-02-15T07:36:02;4.70;71.90
20091;DHT22;10205;49.678;6.560;2023-02-15T07:38:32;4.70;71.90
20091;DHT22;10205;49.678;6.560;2023-02-15T07:41:03;4.70;71.90
20091;DHT22;10205;49.678;6.560;2023-02-15T07:43:33;4.70;71.90
20091;DHT22;10205;49.678;6.560;2023-02-15T07:46:04;4.70;72.00
20091;DHT22;10205;49.678;6.560;2023-02-15T07:48:32;4.70;72.20
20091;DHT22;10205;49.678;6.560;2023-02-15T07:51:00;4.70;72.30
20091;DHT22;10205;49.678;6.560;2023-02-15T07:53:28;4.70;72.40
20091;DHT22;10205;49.678;6.560;2023-02-15T07:56:02;4.70;72.50
20091;DHT22;10205;49.678;6.560;2023-02-15T07:58:32;4.70;72.50
20091;DHT22;10205;49.678;6.560;2023-02-15T08:01:20;4.70;72.40
20091;DHT22;10205;49.678;6.560;2023-02-15T08:03:49;4.70;72.50
20091;DHT22;10205;49.678;6.560;2023-02-15T08:06:17;4.70;72.50
20091;DHT22;10205;49.678;6.560;2023-02-15T08:08:44;4.70;72.50
20091;DHT22;10205;49.678;6.560;2023-02-15T08:11:18;4.70;72.50
20091;DHT22;10205;49.678;6.560;2023-02-15T08:13:55;4.70;72.50
20091;DHT22;10205;49.678;6.560;2023-02-15T08:16:27;4.70;72.50
20091;DHT22;10205;49.678;6.560;2023-02-15T08:19:00;4.70;72.40
20091;DHT22;10205;49.678;6.560;2023-02-15T08:21:33;4.80;72.40
20091;DHT22;10205;49.678;6.560;2023-02-15T08:24:02;4.80;72.40
20091;DHT22;10205;49.678;6.560;2023-02-15T08:26:32;4.80;72.30
20091;DHT22;10205;49.678;6.560;2023-02-15T08:29:00;4.80;72.50
20091;DHT22;10205;49.678;6.560;2023-02-15T08:31:28;4.80;72.40
20091;DHT22;10205;49.678;6.560;2023-02-15T08:33:57;4.80;72.40
20091;DHT22;10205;49.678;6.560;2023-02-15T08:36:26;4.80;72.30
20091;DHT22;10205;49.678;6.560;2023-02-15T08:38:57;4.80;72.40
20091;DHT22;10205;49.678;6.560;2023-02-15T08:41:26;4.80;72.20
20091;DHT22;10205;49.678;6.560;2023-02-15T08:43:58;4.80;72.10
20091;DHT22;10205;49.678;6.560;2023-02-15T08:46:28;4.80;72.20
20091;DHT22;10205;49.678;6.560;2023-02-15T08:49:00;4.80;72.20
20091;DHT22;10205;49.678;6.560;2023-02-15T08:51:29;4.80;72.30
20091;DHT22;10205;49.678;6.560;2023-02-15T08:54:00;4.80;72.50
20091;DHT22;10205;49.678;6.560;2023-02-15T08:56:31;4.80;72.50
20091;DHT22;10205;49.678;6.560;2023-02-15T08:59:02;4.90;72.60
20091;DHT22;10205;49.678;6.560;2023-02-15T09:01:31;4.90;72.70
20091;DHT22;10205;49.678;6.560;2023-02-15T09:04:03;4.90;72.70
20091;DHT22;10205;49.678;6.560;2023-02-15T09:06:37;4.90;72.70
20091;DHT22;10205;49.678;6.560;2023-02-15T09:09:05;4.90;72.80
20091;DHT22;10205;49.678;6.560;2023-02-15T09:11:37;4.90;72.70
20091;DHT22;10205;49.678;6.560;2023-02-15T09:14:09;5.00;72.80
20091;DHT22;10205;49.678;6.560;2023-02-15T09:16:40;5.00;72.70
20091;DHT22;10205;49.678;6.560;2023-02-15T09:19:10;5.00;72.60
20091;DHT22;10205;49.678;6.560;2023-02-15T09:21:37;5.00;72.60
20091;DHT22;10205;49.678;6.560;2023-02-15T09:24:09;5.00;72.70
20091;DHT22;10205;49.678;6.560;2023-02-15T09:26:39;5.00;72.80
20091;DHT22;10205;49.678;6.560;2023-02-15T09:29:11;5.00;72.80
20091;DHT22;10205;49.678;6.560;2023-02-15T09:31:43;5.00;72.80
20091;DHT22;10205;49.678;6.560;2023-02-15T09:34:12;5.10;72.90
20091;DHT22;10205;49.678;6.560;2023-02-15T09:36:41;5.10;72.80
20091;DHT22;10205;49.678;6.560;2023-02-15T09:39:11;5.10;72.70
20091;DHT22;10205;49.678;6.560;2023-02-15T09:42:04;5.10;72.80
20091;DHT22;10205;49.678;6.560;2023-02-15T09:45:02;5.10;72.90
20091;DHT22;10205;49.678;6.560;2023-02-15T09:47:55;5.10;72.90
20091;DHT22;10205;49.678;6.560;2023-02-15T09:50:55;5.10;72.90
20091;DHT22;10205;49.678;6.560;2023-02-15T09:53:38;5.20;72.90
20091;DHT22;10205;49.678;6.560;2023-02-15T09:56:29;5.20;72.90
20091;DHT22;10205;49.678;6.560;2023-02-15T09:59:09;5.20;72.90
20091;DHT22;10205;49.678;6.560;2023-02-15T10:01:52;5.30;72.90
20091;DHT22;10205;49.678;6.560;2023-02-15T10:04:50;5.20;72.90
20091;DHT22;10205;49.678;6.560;2023-02-15T10:07:40;5.30;73.20
20091;DHT22;10205;49.678;6.560;2023-02-15T10:10:27;5.30;73.00
20091;DHT22;10205;49.678;6.560;2023-02-15T10:13:19;5.30;72.90
20091;DHT22;10205;49.678;6.560;2023-02-15T10:16:10;5.40;73.20
20091;DHT22;10205;49.678;6.560;2023-02-15T10:18:57;5.40;73.30
20091;DHT22;10205;49.678;6.560;2023-02-15T10:21:43;5.40;73.40
20091;DHT22;10205;49.678;6.560;2023-02-15T10:24:35;5.40;73.40
20091;DHT22;10205;49.678;6.560;2023-02-15T10:27:12;5.40;73.40
20091;DHT22;10205;49.678;6.560;2023-02-15T10:29:48;5.50;73.20
20091;DHT22;10205;49.678;6.560;2023-02-15T10:32:27;5.40;73.20
20091;DHT22;10205;49.678;6.560;2023-02-15T10:35:01;5.40;73.40
20091;DHT22;10205;49.678;6.560;2023-02-15T10:37:57;5.50;73.80
20091;DHT22;10205;49.678;6.560;2023-02-15T10:40:41;5.50;74.00
20091;DHT22;10205;49.678;6.560;2023-02-15T10:43:41;5.50;73.80
20091;DHT22;10205;49.678;6.560;2023-02-15T10:46:33;5.50;74.70
20091;DHT22;10205;49.678;6.560;2023-02-15T10:52:25;5.60;73.80
20091;DHT22;10205;49.678;6.560;2023-02-15T10:55:06;5.60;73.60
20091;DHT22;10205;49.678;6.560;2023-02-15T10:57:55;5.60;73.60
20091;DHT22;10205;49.678;6.560;2023-02-15T11:00:37;5.70;73.70
20091;DHT22;10205;49.678;6.560;2023-02-15T11:03:23;5.70;73.80
20091;DHT22;10205;49.678;6.560;2023-02-15T11:06:03;5.70;74.00
20091;DHT22;10205;49.678;6.560;2023-02-15T11:08:37;5.70;73.60
20091;DHT22;10205;49.678;6.560;2023-02-15T11:11:10;5.70;73.60
20091;DHT22;10205;49.678;6.560;2023-02-15T11:13:45;5.80;73.60
20091;DHT22;10205;49.678;6.560;2023-02-15T11:16:20;5.80;73.90
20091;DHT22;10205;49.678;6.560;2023-02-15T11:18:57;5.90;74.20
20091;DHT22;10205;49.678;6.560;2023-02-15T11:21:31;5.80;74.10
20091;DHT22;10205;49.678;6.560;2023-02-15T11:24:10;5.90;74.10
20091;DHT22;10205;49.678;6.560;2023-02-15T11:26:43;5.90;73.90
20091;DHT22;10205;49.678;6.560;2023-02-15T11:29:17;5.90;73.70
20091;DHT22;10205;49.678;6.560;2023-02-15T11:31:53;6.00;74.00
20091;DHT22;10205;49.678;6.560;2023-02-15T11:34:27;6.00;74.20
20091;DHT22;10205;49.678;6.560;2023-02-15T11:37:05;6.00;74.40
20091;DHT22;10205;49.678;6.560;2023-02-15T11:39:38;6.10;74.60
20091;DHT22;10205;49.678;6.560;2023-02-15T11:42:11;6.20;74.70
20091;DHT22;10205;49.678;6.560;2023-02-15T11:44:45;6.20;74.70
20091;DHT22;10205;49.678;6.560;2023-02-15T11:47:19;6.30;74.70
20091;DHT22;10205;49.678;6.560;2023-02-15T11:49:46;6.40;74.70
20091;DHT22;10205;49.678;6.560;2023-02-15T11:52:15;6.40;74.80
20091;DHT22;10205;49.678;6.560;2023-02-15T11:54:48;6.50;74.70
20091;DHT22;10205;49.678;6.560;2023-02-15T11:57:23;6.60;74.60
20091;DHT22;10205;49.678;6.560;2023-02-15T11:59:58;6.70;74.50
20091;DHT22;10205;49.678;6.560;2023-02-15T12:02:36;6.70;74.20
20091;DHT22;10205;49.678;6.560;2023-02-15T12:05:11;6.80;73.90
20091;DHT22;10205;49.678;6.560;2023-02-15T12:07:44;6.80;73.80
20091;DHT22;10205;49.678;6.560;2023-02-15T12:10:22;6.90;73.80
20091;DHT22;10205;49.678;6.560;2023-02-15T12:13:09;6.90;73.70
20091;DHT22;10205;49.678;6.560;2023-02-15T12:15:45;6.90;73.90
20091;DHT22;10205;49.678;6.560;2023-02-15T12:18:20;7.00;73.80
20091;DHT22;10205;49.678;6.560;2023-02-15T12:21:01;7.10;73.80
20091;DHT22;10205;49.678;6.560;2023-02-15T12:23:32;7.20;74.00
20091;DHT22;10205;49.678;6.560;2023-02-15T12:26:02;7.20;74.00
20091;DHT22;10205;49.678;6.560;2023-02-15T12:28:33;7.20;73.90
20091;DHT22;10205;49.678;6.560;2023-02-15T12:31:06;7.30;73.90
20091;DHT22;10205;49.678;6.560;2023-02-15T12:33:45;7.40;73.80
20091;DHT22;10205;49.678;6.560;2023-02-15T12:36:15;7.40;73.70
20091;DHT22;10205;49.678;6.560;2023-02-15T12:39:02;7.50;73.60
20091;DHT22;10205;49.678;6.560;2023-02-15T12:41:33;7.60;73.60
20091;DHT22;10205;49.678;6.560;2023-02-15T12:44:09;7.60;73.50
20091;DHT22;10205;49.678;6.560;2023-02-15T12:46:56;7.70;73.50
20091;DHT22;10205;49.678;6.560;2023-02-15T12:49:25;7.70;73.30
20091;DHT22;10205;49.678;6.560;2023-02-15T12:51:55;7.80;73.40
20091;DHT22;10205;49.678;6.560;2023-02-15T12:54:42;7.90;73.40
20091;DHT22;10205;49.678;6.560;2023-02-15T12:57:32;7.90;73.40
20091;DHT22;10205;49.678;6.560;2023-02-15T13:00:01;8.00;73.20
20091;DHT22;10205;49.678;6.560;2023-02-15T13:02:36;8.10;72.90
20091;DHT22;10205;49.678;6.560;2023-02-15T13:05:18;8.10;72.60
20091;DHT22;10205;49.678;6.560;2023-02-15T13:07:51;8.20;72.70
20091;DHT22;10205;49.678;6.560;2023-02-15T13:10:24;8.30;72.70
20091;DHT22;10205;49.678;6.560;2023-02-15T13:12:55;8.30;72.60
20091;DHT22;10205;49.678;6.560;2023-02-15T13:15:31;8.40;72.40
20091;DHT22;10205;49.678;6.560;2023-02-15T13:18:03;8.40;72.40
20091;DHT22;10205;49.678;6.560;2023-02-15T13:20:35;8.50;72.40
20091;DHT22;10205;49.678;6.560;2023-02-15T13:23:19;8.50;72.20
20091;DHT22;10205;49.678;6.560;2023-02-15T13:25:54;8.60;72.30
20091;DHT22;10205;49.678;6.560;2023-02-15T13:28:29;8.70;73.00
20091;DHT22;10205;49.678;6.560;2023-02-15T13:31:11;8.80;72.00
20091;DHT22;10205;49.678;6.560;2023-02-15T13:33:43;8.80;71.70
20091;DHT22;10205;49.678;6.560;2023-02-15T13:36:19;8.90;71.50
20091;DHT22;10205;49.678;6.560;2023-02-15T13:39:01;8.90;71.40
20091;DHT22;10205;49.678;6.560;2023-02-15T13:41:46;9.00;71.40
20091;DHT22;10205;49.678;6.560;2023-02-15T13:44:32;9.00;71.50
20091;DHT22;10205;49.678;6.560;2023-02-15T13:47:20;9.10;71.50
20091;DHT22;10205;49.678;6.560;2023-02-15T13:50:21;9.10;71.30
20091;DHT22;10205;49.678;6.560;2023-02-15T13:53:13;9.20;71.10
20091;DHT22;10205;49.678;6.560;2023-02-15T13:55:55;9.20;72.00
20091;DHT22;10205;49.678;6.560;2023-02-15T13:58:56;9.30;71.30
20091;DHT22;10205;49.678;6.560;2023-02-15T14:01:39;9.30;70.70
20091;DHT22;10205;49.678;6.560;2023-02-15T14:04:33;9.40;70.70
20091;DHT22;10205;49.678;6.560;2023-02-15T14:07:37;9.50;70.30
20091;DHT22;10205;49.678;6.560;2023-02-15T14:10:31;9.50;70.20
20091;DHT22;10205;49.678;6.560;2023-02-15T14:13:29;9.60;70.50
20091;DHT22;10205;49.678;6.560;2023-02-15T14:16:12;9.60;69.90
20091;DHT22;10205;49.678;6.560;2023-02-15T14:18:53;9.70;70.00
20091;DHT22;10205;49.678;6.560;2023-02-15T14:21:30;9.70;69.80
20091;DHT22;10205;49.678;6.560;2023-02-15T14:24:18;9.70;70.00
20091;DHT22;10205;49.678;6.560;2023-02-15T14:26:59;9.70;69.60
20091;DHT22;10205;49.678;6.560;2023-02-15T14:29:45;9.80;69.80
20091;DHT22;10205;49.678;6.560;2023-02-15T14:32:23;9.80;69.80
20091;DHT22;10205;49.678;6.560;2023-02-15T14:34:57;9.80;69.60
20091;DHT22;10205;49.678;6.560;2023-02-15T14:37:35;9.90;69.40
20091;DHT22;10205;49.678;6.560;2023-02-15T14:43:11;9.90;69.10
20091;DHT22;10205;49.678;6.560;2023-02-15T14:45:49;9.90;69.20
20091;DHT22;10205;49.678;6.560;2023-02-15T14:48:25;10.00;69.90
20091;DHT22;10205;49.678;6.560;2023-02-15T14:50:58;10.00;69.60
20091;DHT22;10205;49.678;6.560;2023-02-15T14:53:44;10.00;69.60
20091;DHT22;10205;49.678;6.560;2023-02-15T14:56:29;10.10;69.20
20091;DHT22;10205;49.678;6.560;2023-02-15T15:01:55;10.20;69.20
20091;DHT22;10205;49.678;6.560;2023-02-15T15:04:31;10.20;69.10
20091;DHT22;10205;49.678;6.560;2023-02-15T15:07:09;10.20;68.90
20091;DHT22;10205;49.678;6.560;2023-02-15T15:09:43;10.30;68.80
20091;DHT22;10205;49.678;6.560;2023-02-15T15:12:36;10.30;68.80
20091;DHT22;10205;49.678;6.560;2023-02-15T15:15:06;10.30;68.60
20091;DHT22;10205;49.678;6.560;2023-02-15T15:18:00;10.30;68.90
20091;DHT22;10205;49.678;6.560;2023-02-15T15:20:43;10.30;68.60
20091;DHT22;10205;49.678;6.560;2023-02-15T15:26:27;10.40;68.40
20091;DHT22;10205;49.678;6.560;2023-02-15T15:29:02;10.40;68.70
20091;DHT22;10205;49.678;6.560;2023-02-15T15:31:40;10.40;68.80
20091;DHT22;10205;49.678;6.560;2023-02-15T15:34:35;10.40;68.70
20091;DHT22;10205;49.678;6.560;2023-02-15T15:37:45;10.50;68.60
20091;DHT22;10205;49.678;6.560;2023-02-15T15:40:48;10.50;68.60
20091;DHT22;10205;49.678;6.560;2023-02-15T15:47:29;10.60;68.40
20091;DHT22;10205;49.678;6.560;2023-02-15T15:50:13;10.60;68.20
20091;DHT22;10205;49.678;6.560;2023-02-15T15:52:46;10.60;68.20
20091;DHT22;10205;49.678;6.560;2023-02-15T15:55:19;10.60;68.20
20091;DHT22;10205;49.678;6.560;2023-02-15T15:57:55;10.70;68.30
20091;DHT22;10205;49.678;6.560;2023-02-15T16:00:33;10.70;68.10
20091;DHT22;10205;49.678;6.560;2023-02-15T16:03:03;10.70;68.20
20091;DHT22;10205;49.678;6.560;2023-02-15T16:05:38;10.70;68.30
20091;DHT22;10205;49.678;6.560;2023-02-15T16:08:08;10.70;67.90
20091;DHT22;10205;49.678;6.560;2023-02-15T16:10:35;10.70;68.00
20091;DHT22;10205;49.678;6.560;2023-02-15T16:13:05;10.70;67.90
20091;DHT22;10205;49.678;6.560;2023-02-15T16:15:36;10.70;67.90
20091;DHT22;10205;49.678;6.560;2023-02-15T16:18:13;10.70;68.00
20091;DHT22;10205;49.678;6.560;2023-02-15T16:20:50;10.60;68.00
20091;DHT22;10205;49.678;6.560;2023-02-15T16:27:00;10.60;68.00
20091;DHT22;10205;49.678;6.560;2023-02-15T16:29:38;10.60;68.10
20091;DHT22;10205;49.678;6.560;2023-02-15T16:32:16;10.60;68.10
20091;DHT22;10205;49.678;6.560;2023-02-15T16:34:52;10.60;68.20
20091;DHT22;10205;49.678;6.560;2023-02-15T16:37:21;10.50;68.00
20091;DHT22;10205;49.678;6.560;2023-02-15T16:39:52;10.50;68.10
20091;DHT22;10205;49.678;6.560;2023-02-15T16:42:21;10.50;68.10
20091;DHT22;10205;49.678;6.560;2023-02-15T16:44:54;10.40;68.00
20091;DHT22;10205;49.678;6.560;2023-02-15T16:47:36;10.40;68.00
20091;DHT22;10205;49.678;6.560;2023-02-15T16:50:17;10.40;67.90
20091;DHT22;10205;49.678;6.560;2023-02-15T16:52:46;10.40;67.80
20091;DHT22;10205;49.678;6.560;2023-02-15T16:55:21;10.40;68.00
20091;DHT22;10205;49.678;6.560;2023-02-15T16:57:53;10.30;68.00
20091;DHT22;10205;49.678;6.560;2023-02-15T17:00:26;10.30;68.00